sensor_id;sensor_type;location;lat;lon;timestamp;P1;durP1;ratioP1;P2;durP2;ratioP2
65469;SDS011;52067;50.710;14.492;2023-04-06T00:00:02;74.32;;;28.30;;
65469;SDS011;52067;50.710;14.492;2023-04-06T00:02:29;30.65;;;12.73;;
65469;SDS011;52067;50.710;14.492;2023-04-06T00:04:55;31.75;;;11.98;;
65469;SDS011;52067;50.710;14.492;2023-04-06T00:07:20;36.75;;;13.00;;
65469;SDS011;52067;50.710;14.492;2023-04-06T00:09:46;36.38;;;13.45;;
65469;SDS011;52067;50.710;14.492;2023-04-06T00:12:11;33.88;;;12.70;;
65469;SDS011;52067;50.710;14.492;2023-04-06T00:14:37;32.28;;;14.05;;
65469;SDS011;52067;50.710;14.492;2023-04-06T00:17:02;38.20;;;13.18;;
65469;SDS011;52067;50.710;14.492;2023-04-06T00:19:27;32.20;;;12.85;;
65469;SDS011;52067;50.710;14.492;2023-04-06T00:21:53;36.60;;;12.57;;
65469;SDS011;52067;50.710;14.492;2023-04-06T00:24:18;22.00;;;10.43;;
65469;SDS011;52067;50.710;14.492;2023-04-06T00:26:44;25.15;;;11.52;;
65469;SDS011;52067;50.710;14.492;2023-04-06T00:29:09;31.42;;;13.13;;
65469;SDS011;52067;50.710;14.492;2023-04-06T00:31:34;25.55;;;12.05;;
65469;SDS011;52067;50.710;14.492;2023-04-06T00:34:00;23.98;;;10.18;;
65469;SDS011;52067;50.710;14.492;2023-04-06T00:36:25;24.05;;;9.85;;
65469;SDS011;52067;50.710;14.492;2023-04-06T00:38:51;25.02;;;8.88;;
65469;SDS011;52067;50.710;14.492;2023-04-06T00:41:17;29.63;;;11.90;;
65469;SDS011;52067;50.710;14.492;2023-04-06T00:43:43;37.33;;;14.35;;
65469;SDS011;52067;50.710;14.492;2023-04-06T00:46:08;34.42;;;14.23;;
65469;SDS011;52067;50.710;14.492;2023-04-06T00:48:34;40.00;;;15.25;;
65469;SDS011;52067;50.710;14.492;2023-04-06T00:51:00;48.15;;;18.60;;
65469;SDS011;52067;50.710;14.492;2023-04-06T00:53:25;36.25;;;14.90;;
65469;SDS011;52067;50.710;14.492;2023-04-06T00:55:51;36.55;;;14.82;;
65469;SDS011;52067;50.710;14.492;2023-04-06T00:58:16;36.67;;;14.52;;
65469;SDS011;52067;50.710;14.492;2023-04-06T01:00:42;35.40;;;13.82;;
65469;SDS011;52067;50.710;14.492;2023-04-06T01:03:07;27.38;;;11.50;;
65469;SDS011;52067;50.710;14.492;2023-04-06T01:05:34;40.65;;;14.98;;
65469;SDS011;52067;50.710;14.492;2023-04-06T01:08:04;38.70;;;15.40;;
65469;SDS011;52067;50.710;14.492;2023-04-06T01:10:30;40.47;;;15.15;;
65469;SDS011;52067;50.710;14.492;2023-04-06T01:12:56;39.90;;;18.50;;
65469;SDS011;52067;50.710;14.492;2023-04-06T01:15:21;42.63;;;15.30;;
65469;SDS011;52067;50.710;14.492;2023-04-06T01:17:47;36.35;;;15.38;;
65469;SDS011;52067;50.710;14.492;2023-04-06T01:20:12;36.10;;;15.38;;
65469;SDS011;52067;50.710;14.492;2023-04-06T01:22:38;33.45;;;14.25;;
65469;SDS011;52067;50.710;14.492;2023-04-06T01:25:04;39.35;;;14.98;;
65469;SDS011;52067;50.710;14.492;2023-04-06T01:27:29;30.35;;;10.63;;
65469;SDS011;52067;50.710;14.492;2023-04-06T01:29:55;26.42;;;10.07;;
65469;SDS011;52067;50.710;14.492;2023-04-06T01:32:21;30.55;;;9.98;;
65469;SDS011;52067;50.710;14.492;2023-04-06T01:34:46;20.60;;;9.18;;
65469;SDS011;52067;50.710;14.492;2023-04-06T01:37:12;21.77;;;8.15;;
65469;SDS011;52067;50.710;14.492;2023-04-06T01:39:37;18.58;;;8.25;;
65469;SDS011;52067;50.710;14.492;2023-04-06T01:42:02;22.10;;;9.55;;
65469;SDS011;52067;50.710;14.492;2023-04-06T01:44:28;31.45;;;11.40;;
65469;SDS011;52067;50.710;14.492;2023-04-06T01:46:55;32.42;;;12.02;;
65469;SDS011;52067;50.710;14.492;2023-04-06T01:49:21;27.42;;;11.35;;
65469;SDS011;52067;50.710;14.492;2023-04-06T01:51:46;33.28;;;13.98;;
65469;SDS011;52067;50.710;14.492;2023-04-06T01:54:12;53.83;;;17.48;;
65469;SDS011;52067;50.710;14.492;2023-04-06T01:56:37;48.10;;;18.23;;
65469;SDS011;52067;50.710;14.492;2023-04-06T01:59:03;40.70;;;15.15;;
65469;SDS011;52067;50.710;14.492;2023-04-06T02:01:28;38.38;;;13.63;;
65469;SDS011;52067;50.710;14.492;2023-04-06T02:03:53;28.73;;;12.82;;
65469;SDS011;52067;50.710;14.492;2023-04-06T02:06:19;32.15;;;11.88;;
65469;SDS011;52067;50.710;14.492;2023-04-06T02:08:44;29.05;;;11.27;;
65469;SDS011;52067;50.710;14.492;2023-04-06T02:11:10;30.48;;;13.68;;
65469;SDS011;52067;50.710;14.492;2023-04-06T02:13:35;36.83;;;12.35;;
65469;SDS011;52067;50.710;14.492;2023-04-06T02:16:00;32.65;;;11.73;;
65469;SDS011;52067;50.710;14.492;2023-04-06T02:18:27;20.80;;;8.80;;
65469;SDS011;52067;50.710;14.492;2023-04-06T02:20:54;28.05;;;9.70;;
65469;SDS011;52067;50.710;14.492;2023-04-06T02:23:20;31.77;;;10.32;;
65469;SDS011;52067;50.710;14.492;2023-04-06T02:25:46;32.47;;;11.18;;
65469;SDS011;52067;50.710;14.492;2023-04-06T02:28:11;36.05;;;12.15;;
65469;SDS011;52067;50.710;14.492;2023-04-06T02:30:36;43.78;;;13.13;;
65469;SDS011;52067;50.710;14.492;2023-04-06T02:33:02;33.28;;;11.68;;
65469;SDS011;52067;50.710;14.492;2023-04-06T02:35:28;33.50;;;11.05;;
65469;SDS011;52067;50.710;14.492;2023-04-06T02:37:54;38.25;;;12.88;;
65469;SDS011;52067;50.710;14.492;2023-04-06T02:40:20;27.30;;;10.85;;
65469;SDS011;52067;50.710;14.492;2023-04-06T02:42:45;41.47;;;13.52;;
65469;SDS011;52067;50.710;14.492;2023-04-06T02:45:11;41.90;;;13.52;;
65469;SDS011;52067;50.710;14.492;2023-04-06T02:47:36;37.85;;;12.07;;
65469;SDS011;52067;50.710;14.492;2023-04-06T02:50:01;31.98;;;12.02;;
65469;SDS011;52067;50.710;14.492;2023-04-06T02:52:27;32.70;;;11.05;;
65469;SDS011;52067;50.710;14.492;2023-04-06T02:54:52;27.73;;;10.30;;
65469;SDS011;52067;50.710;14.492;2023-04-06T02:57:18;28.35;;;10.48;;
65469;SDS011;52067;50.710;14.492;2023-04-06T02:59:43;32.17;;;11.80;;
65469;SDS011;52067;50.710;14.492;2023-04-06T03:02:08;43.17;;;13.90;;
65469;SDS011;52067;50.710;14.492;2023-04-06T03:04:34;30.08;;;10.23;;
65469;SDS011;52067;50.710;14.492;2023-04-06T03:07:00;26.40;;;9.77;;
65469;SDS011;52067;50.710;14.492;2023-04-06T03:09:25;25.15;;;9.95;;
65469;SDS011;52067;50.710;14.492;2023-04-06T03:11:50;29.73;;;10.43;;
65469;SDS011;52067;50.710;14.492;2023-04-06T03:14:16;24.35;;;9.27;;
65469;SDS011;52067;50.710;14.492;2023-04-06T03:16:46;22.85;;;8.43;;
65469;SDS011;52067;50.710;14.492;2023-04-06T03:19:11;19.70;;;8.98;;
65469;SDS011;52067;50.710;14.492;2023-04-06T03:21:37;26.67;;;9.70;;
65469;SDS011;52067;50.710;14.492;2023-04-06T03:24:02;27.35;;;10.77;;
65469;SDS011;52067;50.710;14.492;2023-04-06T03:26:28;26.67;;;10.45;;
65469;SDS011;52067;50.710;14.492;2023-04-06T03:28:53;33.28;;;11.02;;
65469;SDS011;52067;50.710;14.492;2023-04-06T03:31:18;26.85;;;11.35;;
65469;SDS011;52067;50.710;14.492;2023-04-06T03:33:44;34.80;;;13.23;;
65469;SDS011;52067;50.710;14.492;2023-04-06T03:36:10;38.95;;;14.85;;
65469;SDS011;52067;50.710;14.492;2023-04-06T03:38:35;33.28;;;13.95;;
65469;SDS011;52067;50.710;14.492;2023-04-06T03:41:00;25.13;;;11.10;;
65469;SDS011;52067;50.710;14.492;2023-04-06T03:43:26;31.38;;;10.88;;
65469;SDS011;52067;50.710;14.492;2023-04-06T03:45:51;25.67;;;10.75;;
65469;SDS011;52067;50.710;14.492;2023-04-06T03:48:16;23.95;;;10.35;;
65469;SDS011;52067;50.710;14.492;2023-04-06T03:50:42;26.05;;;11.82;;
65469;SDS011;52067;50.710;14.492;2023-04-06T03:53:07;34.90;;;13.27;;
65469;SDS011;52067;50.710;14.492;2023-04-06T03:55:33;26.33;;;10.75;;
65469;SDS011;52067;50.710;14.492;2023-04-06T03:57:59;32.75;;;11.77;;
65469;SDS011;52067;50.710;14.492;2023-04-06T04:00:24;26.23;;;11.27;;
65469;SDS011;52067;50.710;14.492;2023-04-06T04:02:50;28.90;;;11.15;;
65469;SDS011;52067;50.710;14.492;2023-04-06T04:05:15;25.63;;;10.52;;
65469;SDS011;52067;50.710;14.492;2023-04-06T04:07:41;31.15;;;11.43;;
65469;SDS011;52067;50.710;14.492;2023-04-06T04:10:06;24.23;;;10.82;;
65469;SDS011;52067;50.710;14.492;2023-04-06T04:12:32;24.20;;;10.68;;
65469;SDS011;52067;50.710;14.492;2023-04-06T04:14:57;23.20;;;10.30;;
65469;SDS011;52067;50.710;14.492;2023-04-06T04:17:24;27.08;;;10.48;;
65469;SDS011;52067;50.710;14.492;2023-04-06T04:19:49;25.17;;;9.88;;
65469;SDS011;52067;50.710;14.492;2023-04-06T04:22:15;25.95;;;10.75;;
65469;SDS011;52067;50.710;14.492;2023-04-06T04:24:40;29.48;;;10.95;;
65469;SDS011;52067;50.710;14.492;2023-04-06T04:27:05;25.40;;;9.63;;
65469;SDS011;52067;50.710;14.492;2023-04-06T04:29:31;23.15;;;9.15;;
65469;SDS011;52067;50.710;14.492;2023-04-06T04:31:56;19.85;;;9.13;;
65469;SDS011;52067;50.710;14.492;2023-04-06T04:34:21;24.38;;;9.80;;
65469;SDS011;52067;50.710;14.492;2023-04-06T04:36:50;23.10;;;9.18;;
65469;SDS011;52067;50.710;14.492;2023-04-06T04:39:15;26.45;;;10.02;;
65469;SDS011;52067;50.710;14.492;2023-04-06T04:41:41;22.20;;;10.00;;
65469;SDS011;52067;50.710;14.492;2023-04-06T04:44:06;26.05;;;10.13;;
65469;SDS011;52067;50.710;14.492;2023-04-06T04:46:31;23.48;;;9.77;;
65469;SDS011;52067;50.710;14.492;2023-04-06T04:48:57;24.48;;;10.38;;
65469;SDS011;52067;50.710;14.492;2023-04-06T04:51:22;21.67;;;9.10;;
65469;SDS011;52067;50.710;14.492;2023-04-06T04:53:49;17.30;;;7.95;;
65469;SDS011;52067;50.710;14.492;2023-04-06T04:56:14;21.80;;;9.05;;
65469;SDS011;52067;50.710;14.492;2023-04-06T04:58:40;24.58;;;9.00;;
65469;SDS011;52067;50.710;14.492;2023-04-06T05:01:05;22.38;;;9.43;;
65469;SDS011;52067;50.710;14.492;2023-04-06T05:03:32;25.23;;;11.80;;
65469;SDS011;52067;50.710;14.492;2023-04-06T05:05:57;23.40;;;9.85;;
65469;SDS011;52067;50.710;14.492;2023-04-06T05:08:22;25.80;;;10.52;;
65469;SDS011;52067;50.710;14.492;2023-04-06T05:10:48;28.33;;;11.70;;
65469;SDS011;52067;50.710;14.492;2023-04-06T05:13:14;44.38;;;14.95;;
65469;SDS011;52067;50.710;14.492;2023-04-06T05:15:39;44.58;;;15.57;;
65469;SDS011;52067;50.710;14.492;2023-04-06T05:18:05;38.42;;;13.23;;
65469;SDS011;52067;50.710;14.492;2023-04-06T05:20:31;35.65;;;13.48;;
65469;SDS011;52067;50.710;14.492;2023-04-06T05:22:57;40.83;;;15.80;;
65469;SDS011;52067;50.710;14.492;2023-04-06T05:25:22;52.67;;;18.73;;
65469;SDS011;52067;50.710;14.492;2023-04-06T05:27:47;55.55;;;21.35;;
65469;SDS011;52067;50.710;14.492;2023-04-06T05:30:13;48.85;;;19.45;;
65469;SDS011;52067;50.710;14.492;2023-04-06T05:32:39;39.92;;;16.40;;
65469;SDS011;52067;50.710;14.492;2023-04-06T05:35:04;34.35;;;15.13;;
65469;SDS011;52067;50.710;14.492;2023-04-06T05:37:30;41.00;;;15.80;;
65469;SDS011;52067;50.710;14.492;2023-04-06T05:39:55;28.23;;;13.98;;
65469;SDS011;52067;50.710;14.492;2023-04-06T05:42:21;32.45;;;14.10;;
65469;SDS011;52067;50.710;14.492;2023-04-06T05:44:47;30.65;;;13.43;;
65469;SDS011;52067;50.710;14.492;2023-04-06T05:47:13;31.70;;;12.80;;
65469;SDS011;52067;50.710;14.492;2023-04-06T05:49:38;32.15;;;13.25;;
65469;SDS011;52067;50.710;14.492;2023-04-06T05:52:03;57.67;;;18.00;;
65469;SDS011;52067;50.710;14.492;2023-04-06T05:54:29;48.00;;;17.73;;
65469;SDS011;52067;50.710;14.492;2023-04-06T05:56:54;58.38;;;16.58;;
65469;SDS011;52067;50.710;14.492;2023-04-06T05:59:20;52.80;;;17.65;;
65469;SDS011;52067;50.710;14.492;2023-04-06T06:01:45;51.03;;;16.05;;
65469;SDS011;52067;50.710;14.492;2023-04-06T06:04:11;48.38;;;17.67;;
65469;SDS011;52067;50.710;14.492;2023-04-06T06:06:36;34.67;;;13.85;;
65469;SDS011;52067;50.710;14.492;2023-04-06T06:09:02;29.15;;;13.07;;
65469;SDS011;52067;50.710;14.492;2023-04-06T06:11:28;29.77;;;11.05;;
65469;SDS011;52067;50.710;14.492;2023-04-06T06:13:54;28.13;;;11.52;;
65469;SDS011;52067;50.710;14.492;2023-04-06T06:16:20;58.35;;;18.88;;
65469;SDS011;52067;50.710;14.492;2023-04-06T06:18:46;64.93;;;19.98;;
65469;SDS011;52067;50.710;14.492;2023-04-06T06:21:11;68.53;;;20.75;;
65469;SDS011;52067;50.710;14.492;2023-04-06T06:23:37;68.32;;;21.58;;
65469;SDS011;52067;50.710;14.492;2023-04-06T06:26:03;59.78;;;21.85;;
65469;SDS011;52067;50.710;14.492;2023-04-06T06:28:29;42.65;;;14.73;;
65469;SDS011;52067;50.710;14.492;2023-04-06T06:30:54;43.80;;;16.05;;
65469;SDS011;52067;50.710;14.492;2023-04-06T06:33:20;36.35;;;15.73;;
65469;SDS011;52067;50.710;14.492;2023-04-06T06:35:45;53.53;;;19.15;;
65469;SDS011;52067;50.710;14.492;2023-04-06T06:38:11;42.65;;;16.48;;
65469;SDS011;52067;50.710;14.492;2023-04-06T06:40:36;29.80;;;12.88;;
65469;SDS011;52067;50.710;14.492;2023-04-06T06:43:02;28.52;;;13.38;;
65469;SDS011;52067;50.710;14.492;2023-04-06T06:45:27;32.85;;;13.38;;
65469;SDS011;52067;50.710;14.492;2023-04-06T06:47:54;25.38;;;12.25;;
65469;SDS011;52067;50.710;14.492;2023-04-06T06:50:19;25.73;;;12.48;;
65469;SDS011;52067;50.710;14.492;2023-04-06T06:52:45;25.40;;;11.02;;
65469;SDS011;52067;50.710;14.492;2023-04-06T06:55:10;20.67;;;10.48;;
65469;SDS011;52067;50.710;14.492;2023-04-06T06:57:36;25.15;;;10.35;;
65469;SDS011;52067;50.710;14.492;2023-04-06T07:00:01;21.45;;;10.77;;
65469;SDS011;52067;50.710;14.492;2023-04-06T07:02:27;19.33;;;10.10;;
65469;SDS011;52067;50.710;14.492;2023-04-06T07:04:53;22.50;;;10.63;;
65469;SDS011;52067;50.710;14.492;2023-04-06T07:07:18;27.70;;;9.50;;
65469;SDS011;52067;50.710;14.492;2023-04-06T07:09:43;17.00;;;9.13;;
65469;SDS011;52067;50.710;14.492;2023-04-06T07:12:09;18.80;;;8.50;;
65469;SDS011;52067;50.710;14.492;2023-04-06T07:14:34;20.02;;;7.95;;
65469;SDS011;52067;50.710;14.492;2023-04-06T07:17:01;11.95;;;6.82;;
65469;SDS011;52067;50.710;14.492;2023-04-06T07:19:26;16.55;;;7.70;;
65469;SDS011;52067;50.710;14.492;2023-04-06T07:21:52;13.65;;;7.30;;
65469;SDS011;52067;50.710;14.492;2023-04-06T07:24:17;17.58;;;8.73;;
65469;SDS011;52067;50.710;14.492;2023-04-06T07:26:43;18.38;;;8.93;;
65469;SDS011;52067;50.710;14.492;2023-04-06T07:29:08;20.77;;;8.90;;
65469;SDS011;52067;50.710;14.492;2023-04-06T07:31:33;18.90;;;9.95;;
65469;SDS011;52067;50.710;14.492;2023-04-06T07:34:00;21.65;;;9.48;;
65469;SDS011;52067;50.710;14.492;2023-04-06T07:36:26;18.60;;;9.32;;
65469;SDS011;52067;50.710;14.492;2023-04-06T07:38:51;16.35;;;8.63;;
65469;SDS011;52067;50.710;14.492;2023-04-06T07:41:16;19.95;;;10.50;;
65469;SDS011;52067;50.710;14.492;2023-04-06T07:43:42;18.77;;;9.52;;
65469;SDS011;52067;50.710;14.492;2023-04-06T07:46:07;17.70;;;8.38;;
65469;SDS011;52067;50.710;14.492;2023-04-06T07:48:32;14.43;;;8.80;;
65469;SDS011;52067;50.710;14.492;2023-04-06T07:51:04;14.85;;;8.00;;
65469;SDS011;52067;50.710;14.492;2023-04-06T07:53:30;17.23;;;8.23;;
65469;SDS011;52067;50.710;14.492;2023-04-06T07:55:55;12.05;;;6.03;;
65469;SDS011;52067;50.710;14.492;2023-04-06T07:58:21;11.98;;;6.65;;
65469;SDS011;52067;50.710;14.492;2023-04-06T08:00:47;11.00;;;5.03;;
65469;SDS011;52067;50.710;14.492;2023-04-06T08:03:12;14.55;;;4.55;;
65469;SDS011;52067;50.710;14.492;2023-04-06T08:05:37;9.07;;;5.03;;
65469;SDS011;52067;50.710;14.492;2023-04-06T08:08:03;10.05;;;5.72;;
65469;SDS011;52067;50.710;14.492;2023-04-06T08:10:28;10.23;;;5.22;;
65469;SDS011;52067;50.710;14.492;2023-04-06T08:12:54;10.95;;;6.20;;
65469;SDS011;52067;50.710;14.492;2023-04-06T08:15:19;14.48;;;6.47;;
65469;SDS011;52067;50.710;14.492;2023-04-06T08:17:45;11.13;;;5.40;;
65469;SDS011;52067;50.710;14.492;2023-04-06T08:20:10;14.93;;;5.28;;
65469;SDS011;52067;50.710;14.492;2023-04-06T08:22:36;10.63;;;5.25;;
65469;SDS011;52067;50.710;14.492;2023-04-06T08:25:01;12.18;;;5.20;;
65469;SDS011;52067;50.710;14.492;2023-04-06T08:27:26;10.45;;;5.45;;
65469;SDS011;52067;50.710;14.492;2023-04-06T08:29:52;8.90;;;4.80;;
65469;SDS011;52067;50.710;14.492;2023-04-06T08:32:17;11.57;;;5.18;;
65469;SDS011;52067;50.710;14.492;2023-04-06T08:34:43;15.50;;;5.10;;
65469;SDS011;52067;50.710;14.492;2023-04-06T08:37:08;9.65;;;4.18;;
65469;SDS011;52067;50.710;14.492;2023-04-06T08:39:33;7.82;;;3.25;;
65469;SDS011;52067;50.710;14.492;2023-04-06T08:42:00;5.18;;;3.17;;
65469;SDS011;52067;50.710;14.492;2023-04-06T08:44:28;6.30;;;3.55;;
65469;SDS011;52067;50.710;14.492;2023-04-06T08:46:57;7.35;;;3.75;;
65469;SDS011;52067;50.710;14.492;2023-04-06T08:49:24;7.15;;;3.53;;
65469;SDS011;52067;50.710;14.492;2023-04-06T08:51:50;7.05;;;4.05;;
65469;SDS011;52067;50.710;14.492;2023-04-06T08:54:16;6.97;;;3.72;;
65469;SDS011;52067;50.710;14.492;2023-04-06T08:56:41;7.38;;;4.25;;
65469;SDS011;52067;50.710;14.492;2023-04-06T08:59:08;11.65;;;4.35;;
65469;SDS011;52067;50.710;14.492;2023-04-06T09:01:36;9.82;;;4.30;;
65469;SDS011;52067;50.710;14.492;2023-04-06T09:04:06;8.13;;;4.18;;
65469;SDS011;52067;50.710;14.492;2023-04-06T09:06:35;8.02;;;3.95;;
65469;SDS011;52067;50.710;14.492;2023-04-06T09:09:01;6.30;;;3.80;;
65469;SDS011;52067;50.710;14.492;2023-04-06T09:11:27;8.20;;;3.92;;
65469;SDS011;52067;50.710;14.492;2023-04-06T09:13:53;7.00;;;4.30;;
65469;SDS011;52067;50.710;14.492;2023-04-06T09:16:20;9.32;;;4.57;;
65469;SDS011;52067;50.710;14.492;2023-04-06T09:18:46;8.98;;;4.47;;
65469;SDS011;52067;50.710;14.492;2023-04-06T09:21:12;8.10;;;3.13;;
65469;SDS011;52067;50.710;14.492;2023-04-06T09:23:38;8.70;;;3.67;;
65469;SDS011;52067;50.710;14.492;2023-04-06T09:31:22;7.13;;;3.85;;
65469;SDS011;52067;50.710;14.492;2023-04-06T09:33:52;9.00;;;3.95;;
65469;SDS011;52067;50.710;14.492;2023-04-06T09:36:18;6.30;;;3.72;;
65469;SDS011;52067;50.710;14.492;2023-04-06T09:38:57;6.00;;;3.67;;
65469;SDS011;52067;50.710;14.492;2023-04-06T09:41:24;5.85;;;3.28;;
65469;SDS011;52067;50.710;14.492;2023-04-06T09:44:01;7.85;;;3.97;;
65469;SDS011;52067;50.710;14.492;2023-04-06T09:46:31;8.40;;;3.28;;
65469;SDS011;52067;50.710;14.492;2023-04-06T09:48:59;5.45;;;3.70;;
65469;SDS011;52067;50.710;14.492;2023-04-06T09:51:26;7.93;;;3.45;;
65469;SDS011;52067;50.710;14.492;2023-04-06T09:53:57;5.65;;;3.15;;
65469;SDS011;52067;50.710;14.492;2023-04-06T09:56:28;5.85;;;2.95;;
65469;SDS011;52067;50.710;14.492;2023-04-06T09:59:01;6.93;;;3.38;;
65469;SDS011;52067;50.710;14.492;2023-04-06T10:01:28;6.95;;;2.58;;
65469;SDS011;52067;50.710;14.492;2023-04-06T10:04:04;4.97;;;3.00;;
65469;SDS011;52067;50.710;14.492;2023-04-06T10:06:52;6.30;;;3.53;;
65469;SDS011;52067;50.710;14.492;2023-04-06T10:09:18;5.82;;;3.38;;
65469;SDS011;52067;50.710;14.492;2023-04-06T10:11:49;6.00;;;3.10;;
65469;SDS011;52067;50.710;14.492;2023-04-06T10:14:15;6.70;;;3.00;;
65469;SDS011;52067;50.710;14.492;2023-04-06T10:16:41;5.68;;;3.00;;
65469;SDS011;52067;50.710;14.492;2023-04-06T10:19:14;5.50;;;2.67;;
65469;SDS011;52067;50.710;14.492;2023-04-06T10:21:43;5.40;;;2.83;;
65469;SDS011;52067;50.710;14.492;2023-04-06T10:24:13;4.20;;;2.50;;
65469;SDS011;52067;50.710;14.492;2023-04-06T10:26:39;6.28;;;2.97;;
65469;SDS011;52067;50.710;14.492;2023-04-06T10:29:05;5.50;;;3.53;;
65469;SDS011;52067;50.710;14.492;2023-04-06T10:31:31;5.80;;;3.17;;
65469;SDS011;52067;50.710;14.492;2023-04-06T10:33:57;4.63;;;2.75;;
65469;SDS011;52067;50.710;14.492;2023-04-06T10:36:24;6.07;;;3.00;;
65469;SDS011;52067;50.710;14.492;2023-04-06T10:38:57;5.65;;;3.20;;
65469;SDS011;52067;50.710;14.492;2023-04-06T10:41:45;5.72;;;2.95;;
65469;SDS011;52067;50.710;14.492;2023-04-06T10:44:22;6.07;;;3.30;;
65469;SDS011;52067;50.710;14.492;2023-04-06T10:49:17;5.43;;;2.78;;
65469;SDS011;52067;50.710;14.492;2023-04-06T10:51:43;4.65;;;2.92;;
65469;SDS011;52067;50.710;14.492;2023-04-06T10:54:08;4.57;;;2.70;;
65469;SDS011;52067;50.710;14.492;2023-04-06T10:56:36;4.10;;;2.85;;
65469;SDS011;52067;50.710;14.492;2023-04-06T10:59:02;5.57;;;2.97;;
65469;SDS011;52067;50.710;14.492;2023-04-06T11:01:27;4.80;;;2.90;;
65469;SDS011;52067;50.710;14.492;2023-04-06T11:03:55;4.63;;;2.55;;
65469;SDS011;52067;50.710;14.492;2023-04-06T11:06:24;6.13;;;3.00;;
65469;SDS011;52067;50.710;14.492;2023-04-06T11:08:52;3.75;;;2.53;;
65469;SDS011;52067;50.710;14.492;2023-04-06T11:11:18;4.47;;;3.00;;
65469;SDS011;52067;50.710;14.492;2023-04-06T11:18:55;4.85;;;3.00;;
65469;SDS011;52067;50.710;14.492;2023-04-06T11:26:54;4.30;;;2.65;;
65469;SDS011;52067;50.710;14.492;2023-04-06T11:31:50;3.85;;;2.53;;
65469;SDS011;52067;50.710;14.492;2023-04-06T11:34:17;4.70;;;2.65;;
65469;SDS011;52067;50.710;14.492;2023-04-06T11:36:47;4.25;;;2.50;;
65469;SDS011;52067;50.710;14.492;2023-04-06T11:39:18;6.32;;;2.88;;
65469;SDS011;52067;50.710;14.492;2023-04-06T11:41:48;3.63;;;2.45;;
65469;SDS011;52067;50.710;14.492;2023-04-06T11:44:26;3.90;;;2.60;;
65469;SDS011;52067;50.710;14.492;2023-04-06T11:46:59;4.63;;;2.75;;
65469;SDS011;52067;50.710;14.492;2023-04-06T11:49:30;4.75;;;2.72;;
65469;SDS011;52067;50.710;14.492;2023-04-06T11:51:57;3.85;;;2.40;;
65469;SDS011;52067;50.710;14.492;2023-04-06T11:54:44;7.47;;;3.30;;
65469;SDS011;52067;50.710;14.492;2023-04-06T11:57:08;3.47;;;2.33;;
65469;SDS011;52067;50.710;14.492;2023-04-06T11:59:34;4.13;;;2.50;;
65469;SDS011;52067;50.710;14.492;2023-04-06T12:02:03;6.53;;;2.95;;
65469;SDS011;52067;50.710;14.492;2023-04-06T12:04:29;4.30;;;2.58;;
65469;SDS011;52067;50.710;14.492;2023-04-06T12:06:55;4.10;;;2.78;;
65469;SDS011;52067;50.710;14.492;2023-04-06T12:09:20;5.13;;;3.03;;
65469;SDS011;52067;50.710;14.492;2023-04-06T12:11:46;5.78;;;2.95;;
65469;SDS011;52067;50.710;14.492;2023-04-06T12:14:12;6.13;;;3.30;;
65469;SDS011;52067;50.710;14.492;2023-04-06T12:16:37;3.72;;;2.78;;
65469;SDS011;52067;50.710;14.492;2023-04-06T12:19:03;4.47;;;2.88;;
65469;SDS011;52067;50.710;14.492;2023-04-06T12:21:29;4.97;;;3.40;;
65469;SDS011;52067;50.710;14.492;2023-04-06T12:23:58;3.15;;;2.38;;
65469;SDS011;52067;50.710;14.492;2023-04-06T12:26:24;3.85;;;2.63;;
65469;SDS011;52067;50.710;14.492;2023-04-06T12:28:50;3.80;;;2.50;;
65469;SDS011;52067;50.710;14.492;2023-04-06T12:31:16;4.13;;;2.63;;
65469;SDS011;52067;50.710;14.492;2023-04-06T12:33:43;4.22;;;2.65;;
65469;SDS011;52067;50.710;14.492;2023-04-06T12:36:13;4.93;;;2.65;;
65469;SDS011;52067;50.710;14.492;2023-04-06T12:38:44;4.68;;;2.45;;
65469;SDS011;52067;50.710;14.492;2023-04-06T12:41:11;5.03;;;3.00;;
65469;SDS011;52067;50.710;14.492;2023-04-06T12:43:36;3.80;;;2.50;;
65469;SDS011;52067;50.710;14.492;2023-04-06T12:46:02;3.95;;;2.70;;
65469;SDS011;52067;50.710;14.492;2023-04-06T12:48:28;4.03;;;2.92;;
65469;SDS011;52067;50.710;14.492;2023-04-06T12:51:03;4.85;;;3.50;;
65469;SDS011;52067;50.710;14.492;2023-04-06T12:53:29;5.90;;;3.60;;
65469;SDS011;52067;50.710;14.492;2023-04-06T12:55:55;3.38;;;2.30;;
65469;SDS011;52067;50.710;14.492;2023-04-06T12:58:22;8.45;;;2.60;;
65469;SDS011;52067;50.710;14.492;2023-04-06T13:00:48;4.03;;;2.92;;
65469;SDS011;52067;50.710;14.492;2023-04-06T13:03:14;5.10;;;2.88;;
65469;SDS011;52067;50.710;14.492;2023-04-06T13:05:49;3.42;;;2.50;;
65469;SDS011;52067;50.710;14.492;2023-04-06T13:08:15;3.38;;;2.50;;
65469;SDS011;52067;50.710;14.492;2023-04-06T13:10:50;3.85;;;2.70;;
65469;SDS011;52067;50.710;14.492;2023-04-06T13:13:23;3.10;;;2.38;;
65469;SDS011;52067;50.710;14.492;2023-04-06T13:15:50;4.10;;;2.70;;
65469;SDS011;52067;50.710;14.492;2023-04-06T13:18:16;3.95;;;2.50;;
65469;SDS011;52067;50.710;14.492;2023-04-06T13:20:41;4.40;;;2.72;;
65469;SDS011;52067;50.710;14.492;2023-04-06T13:23:07;4.07;;;2.60;;
65469;SDS011;52067;50.710;14.492;2023-04-06T13:25:33;4.53;;;2.70;;
65469;SDS011;52067;50.710;14.492;2023-04-06T13:27:59;3.60;;;2.58;;
65469;SDS011;52067;50.710;14.492;2023-04-06T13:30:24;3.80;;;2.58;;
65469;SDS011;52067;50.710;14.492;2023-04-06T13:32:50;4.68;;;2.67;;
65469;SDS011;52067;50.710;14.492;2023-04-06T13:35:17;3.20;;;2.15;;
65469;SDS011;52067;50.710;14.492;2023-04-06T13:37:43;3.15;;;2.47;;
65469;SDS011;52067;50.710;14.492;2023-04-06T13:40:09;5.85;;;2.80;;
65469;SDS011;52067;50.710;14.492;2023-04-06T13:42:36;4.50;;;3.00;;
65469;SDS011;52067;50.710;14.492;2023-04-06T13:45:03;6.47;;;2.45;;
65469;SDS011;52067;50.710;14.492;2023-04-06T13:47:29;5.15;;;2.63;;
65469;SDS011;52067;50.710;14.492;2023-04-06T13:49:55;4.00;;;3.00;;
65469;SDS011;52067;50.710;14.492;2023-04-06T13:52:21;4.50;;;2.60;;
65469;SDS011;52067;50.710;14.492;2023-04-06T13:54:47;3.53;;;2.40;;
65469;SDS011;52067;50.710;14.492;2023-04-06T13:57:13;5.35;;;2.65;;
65469;SDS011;52067;50.710;14.492;2023-04-06T13:59:39;5.32;;;2.78;;
65469;SDS011;52067;50.710;14.492;2023-04-06T14:02:06;8.50;;;2.72;;
65469;SDS011;52067;50.710;14.492;2023-04-06T14:04:32;4.47;;;2.67;;
65469;SDS011;52067;50.710;14.492;2023-04-06T14:06:59;4.10;;;2.58;;
65469;SDS011;52067;50.710;14.492;2023-04-06T14:09:26;5.65;;;2.90;;
65469;SDS011;52067;50.710;14.492;2023-04-06T14:11:52;4.35;;;2.50;;
65469;SDS011;52067;50.710;14.492;2023-04-06T14:14:17;5.03;;;2.78;;
65469;SDS011;52067;50.710;14.492;2023-04-06T14:16:42;5.82;;;3.00;;
65469;SDS011;52067;50.710;14.492;2023-04-06T14:19:09;4.35;;;2.78;;
65469;SDS011;52067;50.710;14.492;2023-04-06T14:21:36;6.90;;;2.90;;
65469;SDS011;52067;50.710;14.492;2023-04-06T14:24:02;5.45;;;2.95;;
65469;SDS011;52067;50.710;14.492;2023-04-06T14:26:28;8.15;;;5.20;;
65469;SDS011;52067;50.710;14.492;2023-04-06T14:28:53;7.65;;;3.85;;
65469;SDS011;52067;50.710;14.492;2023-04-06T14:31:19;6.00;;;3.03;;
65469;SDS011;52067;50.710;14.492;2023-04-06T14:33:44;6.40;;;3.15;;
65469;SDS011;52067;50.710;14.492;2023-04-06T14:36:10;12.55;;;6.55;;